Time;durP1;ratioP1;P1;durP2;ratioP2;P2;SDS_P1;SDS_P2;PMS_P1;PMS_P2;Temp;Humidity;BMP_temperature;BMP_pressure;BME280_temperature;BME280_humidity;BME280_pressure;Samples;Min_cycle;Max_cycle;Signal;HPM_P1;HPM_P2
2023/06/01 00:02:08;;;;;;;30.15;16.10;;;;;;;13.60;98.83;97842.88;10333042;28;20506;-51
2023/06/01 00:07:08;;;;;;;;;;;;;;;13.56;99.02;97829.91;10332935;28;20537;-50
2023/06/01 00:12:08;;;;;;;31.00;21.33;;;;;;;13.49;99.60;97819.50;10332696;28;19952;-51
2023/06/01 00:17:07;;;;;;;35.67;20.35;;;;;;;13.19;99.80;97789.44;10332927;28;20072;-51
2023/06/01 00:22:07;;;;;;;36.95;20.58;;;;;;;13.46;99.38;97835.19;10331771;28;21371;-48
2023/06/01 00:27:07;;;;;;;35.28;21.27;;;;;;;13.39;99.43;97831.78;10332048;28;20087;-50
2023/06/01 00:32:06;;;;;;;40.65;22.30;;;;;;;13.33;99.66;97834.47;10332069;28;20105;-53
2023/06/01 00:37:05;;;;;;;39.33;22.30;;;;;;;13.27;100.00;97835.38;10331141;28;20080;-53
2023/06/01 00:42:05;;;;;;;;;;;;;;;13.29;100.00;97824.94;10332197;28;20030;-51
2023/06/01 00:47:04;;;;;;;31.08;19.88;;;;;;;13.29;99.81;97825.81;10330166;28;19964;-51
2023/06/01 00:52:04;;;;;;;37.90;21.55;;;;;;;13.29;99.40;97832.78;10331917;28;20088;-50
2023/06/01 00:57:03;;;;;;;46.20;20.70;;;;;;;13.20;99.77;97828.50;10330739;28;20158;-51
2023/06/01 01:02:04;;;;;;;37.15;21.58;;;;;;;13.13;100.00;97824.25;10330699;28;20145;-49
2023/06/01 01:07:32;;;;;;;36.78;20.75;;;;;;;13.14;99.53;97833.78;10329641;28;20104;-49
2023/06/01 01:12:39;;;;;;;35.33;21.05;;;;;;;13.11;99.31;97841.63;10331089;28;20117;-51
2023/06/01 01:17:44;;;;;;;40.25;23.25;;;;;;;13.11;99.23;97833.81;10330605;28;20076;-51
2023/06/01 01:22:53;;;;;;;40.42;23.05;;;;;;;13.09;98.95;97841.66;10330050;28;20097;-52
2023/06/01 01:28:18;;;;;;;39.47;22.88;;;;;;;13.08;99.08;97845.13;10329196;28;20068;-51
2023/06/01 01:33:18;;;;;;;40.15;22.42;;;;;;;13.04;98.95;97838.22;10329153;28;20053;-51
2023/06/01 01:38:17;;;;;;;41.55;22.13;;;;;;;12.98;99.31;97835.69;10330858;28;20064;-49
2023/06/01 01:43:15;;;;;;;;;;;;;;;12.98;99.35;97843.50;10332800;28;20022;-51
2023/06/01 01:48:24;;;;;;;50.92;22.40;;;;;;;12.96;99.25;97844.41;10332335;28;20451;-48
2023/06/01 01:53:26;;;;;;;45.60;25.02;;;;;;;12.93;99.43;97837.47;10332562;28;20076;-52
2023/06/01 01:58:26;;;;;;;44.90;24.65;;;;;;;12.73;99.33;97811.59;10331411;28;20065;-48
2023/06/01 02:03:25;;;;;;;73.35;31.35;;;;;;;12.92;100.00;97838.34;10331655;28;20077;-51
2023/06/01 02:08:24;;;;;;;71.20;31.83;;;;;;;12.99;100.00;97839.16;10326854;28;20140;-51
2023/06/01 02:13:23;;;;;;;;;;;;;;;13.06;100.00;97840.81;10324435;28;20152;-49
2023/06/01 02:18:22;;;;;;;120.53;36.80;;;;;;;13.08;100.00;97839.91;10326433;28;20179;-51
2023/06/01 02:23:21;;;;;;;;;;;;;;;13.14;100.00;97844.19;10330364;28;20049;-50
2023/06/01 02:28:20;;;;;;;113.25;34.67;;;;;;;13.22;100.00;97846.75;10332324;28;19917;-50
2023/06/01 02:33:19;;;;;;;;;;;;;;;13.34;100.00;97854.44;10330540;28;20084;-51
2023/06/01 02:38:17;;;;;;;115.03;35.10;;;;;;;13.40;100.00;97862.19;10330347;28;20391;-49
2023/06/01 02:43:16;;;;;;;;;;;;;;;13.46;100.00;97866.47;10329097;28;20791;-51
2023/06/01 02:48:15;;;;;;;80.97;31.10;;;;;;;13.50;100.00;97857.75;10326755;28;19917;-54
2023/06/01 02:53:14;;;;;;;;;;;;;;;13.53;100.00;97861.16;10329039;28;20060;-51
2023/06/01 02:58:16;;;;;;;85.18;32.58;;;;;;;13.59;100.00;97859.44;10327484;28;19916;-53
2023/06/01 03:03:15;;;;;;;70.78;30.60;;;;;;;13.60;100.00;97848.94;10329629;28;20769;-53
2023/06/01 03:08:14;;;;;;;68.80;29.58;;;;;;;13.58;100.00;97850.72;10328773;28;20065;-50
2023/06/01 03:13:13;;;;;;;;;;;;;;;13.64;100.00;97855.00;10329590;28;20025;-51
2023/06/01 03:18:12;;;;;;;81.95;29.85;;;;;;;13.60;100.00;97848.94;10328243;28;19991;-53
2023/06/01 03:23:10;;;;;;;;;;;;;;;13.65;100.00;97852.38;10328660;28;20021;-53
2023/06/01 03:28:09;;;;;;;73.57;26.03;;;;;;;13.67;100.00;97852.34;10328561;28;20010;-52
2023/06/01 03:33:08;;;;;;;;;;;;;;;13.64;100.00;97844.59;10328593;28;20033;-52
2023/06/01 03:38:07;;;;;;;109.97;30.17;;;;;;;13.48;100.00;97841.25;10328328;28;19913;-51
2023/06/01 03:43:06;;;;;;;;;;;;;;;13.43;100.00;97851.72;10328585;28;20187;-53
2023/06/01 03:48:05;;;;;;;130.77;28.63;;;;;;;13.41;100.00;97857.84;10327959;28;19995;-51
2023/06/01 03:53:05;;;;;;;83.00;28.13;;;;;;;13.47;100.00;97852.53;10328462;28;20057;-51
2023/06/01 03:58:04;;;;;;;121.13;29.00;;;;;;;13.59;100.00;97857.66;10327629;28;20131;-52
2023/06/01 04:03:07;;;;;;;;;;;;;;;13.70;100.00;97858.41;10328107;28;20125;-52
2023/06/01 04:08:06;;;;;;;87.00;23.73;;;;;;;13.66;100.00;97850.66;10327708;28;19952;-52
2023/06/01 04:13:05;;;;;;;;;;;;;;;13.43;100.00;97859.53;10328334;28;20034;-52
2023/06/01 04:18:04;;;;;;;42.80;16.02;;;;;;;13.24;100.00;97868.44;10327720;28;20380;-52
2023/06/01 04:23:02;;;;;;;;;;;;;;;13.24;100.00;97871.06;10328671;28;20570;-49
2023/06/01 04:28:01;;;;;;;29.83;15.20;;;;;;;13.41;100.00;97873.47;10325955;28;20650;-50
2023/06/01 04:33:00;;;;;;;;;;;;;;;13.75;100.00;97880.09;10325522;28;20025;-53
2023/06/01 04:37:59;;;;;;;29.92;15.90;;;;;;;13.85;100.00;97865.19;10324868;28;19913;-53
2023/06/01 04:43:02;;;;;;;31.88;17.88;;;;;;;14.07;100.00;97876.19;10331382;28;20501;-53
2023/06/01 04:48:01;;;;;;;42.33;16.92;;;;;;;14.11;99.68;97845.72;10333906;28;20076;-53
2023/06/01 04:53:01;;;;;;;;;;;;;;;14.28;99.08;97875.03;10334342;28;20028;-52
2023/06/01 04:58:03;;;;;;;54.53;18.77;;;;;;;14.42;98.60;97872.25;10334654;28;20396;-52
2023/06/01 05:03:02;;;;;;;36.55;17.25;;;;;;;14.44;98.08;97880.06;10333186;28;20893;-52
2023/06/01 05:08:02;;;;;;;40.60;16.55;;;;;;;14.41;98.66;97871.38;10333089;28;20072;-52
2023/06/01 05:13:01;;;;;;;32.05;16.42;;;;;;;14.47;98.36;97872.16;10334173;28;20112;-51
2023/06/01 05:17:59;;;;;;;;;;;;;;;14.67;97.96;97866.66;10333791;28;20104;-53
2023/06/01 05:22:58;;;;;;;33.63;16.07;;;;;;;14.78;96.50;97863.03;10332622;28;19975;-53
2023/06/01 05:27:57;;;;;;;;;;;;;;;14.90;97.18;97863.72;10333682;28;20124;-53
2023/06/01 05:32:56;;;;;;;21.83;15.00;;;;;;;15.21;95.59;97864.91;10332149;28;20047;-53
2023/06/01 05:37:55;;;;;;;37.13;17.30;;;;;;;15.11;94.47;97808.47;10331561;28;20121;-52
2023/06/01 05:42:54;;;;;;;57.50;17.80;;;;;;;15.37;93.27;97843.72;10331691;28;20084;-52
2023/06/01 05:47:53;;;;;;;37.88;13.38;;;;;;;15.30;92.55;97857.78;10330361;28;20048;-51
2023/06/01 05:52:53;;;;;;;22.02;13.98;;;;;;;15.35;93.33;97854.19;10331389;28;20084;-52
2023/06/01 05:57:52;;;;;;;20.98;13.88;;;;;;;15.55;92.56;97861.69;10332209;28;20504;-52
2023/06/01 06:02:51;;;;;;;20.33;12.77;;;;;;;15.51;92.67;97867.84;10328760;28;20039;-53
2023/06/01 06:07:50;;;;;;;;;;;;;;;15.67;91.59;97866.66;10324603;28;20612;-53
2023/06/01 06:12:50;;;;;;;16.90;12.20;;;;;;;16.13;91.08;97864.88;10328528;28;19956;-52
2023/06/01 06:17:49;;;;;;;19.45;13.25;;;;;;;16.47;88.51;97864.13;10326626;28;20500;-53
2023/06/01 06:22:52;;;;;;;15.02;11.48;;;;;;;16.81;87.88;97868.59;10323077;28;20515;-53
2023/06/01 06:27:51;;;;;;;21.88;13.45;;;;;;;17.12;84.16;97860.81;10327422;28;20073;-53
2023/06/01 06:32:50;;;;;;;17.75;12.45;;;;;;;16.93;85.08;97856.06;10329172;28;20047;-52
2023/06/01 06:37:49;;;;;;;18.65;13.90;;;;;;;16.95;85.14;97855.16;10329354;28;20053;-52
2023/06/01 06:42:50;;;;;;;19.10;15.20;;;;;;;17.02;85.48;97854.09;10331244;28;20068;-52
2023/06/01 06:47:49;;;;;;;20.42;16.15;;;;;;;17.22;84.97;97841.34;10329819;28;20407;-50
2023/06/01 06:52:48;;;;;;;22.60;17.13;;;;;;;17.26;86.05;97847.38;10330294;28;20068;-52
2023/06/01 06:57:47;;;;;;;22.23;14.95;;;;;;;17.05;85.29;97799.84;10331411;28;20372;-53
2023/06/01 07:02:46;;;;;;;19.58;13.82;;;;;;;17.43;84.84;97842.53;10329219;28;20026;-52
2023/06/01 07:07:46;;;;;;;17.45;14.43;;;;;;;17.50;84.52;97817.00;10329800;28;20110;-52
2023/06/01 07:12:45;;;;;;;15.95;11.52;;;;;;;17.95;83.71;97841.09;10329345;28;20069;-51
2023/06/01 07:17:44;;;;;;;16.75;10.18;;;;;;;18.08;81.02;97833.72;10326036;28;20037;-51
2023/06/01 07:22:43;;;;;;;10.88;8.18;;;;;;;18.25;81.21;97824.47;10326509;28;20061;-51
2023/06/01 07:27:45;;;;;;;9.60;7.93;;;;;;;18.26;80.81;97836.69;10330386;28;20029;-51
2023/06/01 07:32:45;;;;;;;13.00;8.60;;;;;;;18.67;79.45;97824.03;10329864;28;20061;-52
2023/06/01 07:37:44;;;;;;;11.45;7.78;;;;;;;18.84;78.95;97813.00;10330322;28;20065;-53
2023/06/01 07:42:43;;;;;;;10.82;7.60;;;;;;;19.12;77.54;97816.41;10324923;28;20069;-52
2023/06/01 07:47:42;;;;;;;10.65;7.28;;;;;;;18.78;74.98;97687.84;10327470;28;20049;-51
2023/06/01 07:52:41;;;;;;;10.50;6.93;;;;;;;19.75;73.21;97794.91;10326382;28;20018;-51
2023/06/01 07:57:40;;;;;;;12.40;7.30;;;;;;;19.87;71.96;97795.28;10324260;28;20506;-52
2023/06/01 08:02:39;;;;;;;12.05;7.85;;;;;;;19.84;73.57;97757.69;10325304;28;20077;-52
2023/06/01 08:07:39;;;;;;;12.35;7.57;;;;;;;20.35;72.48;97782.03;10324457;28;20149;-53
2023/06/01 08:12:38;;;;;;;8.77;7.05;;;;;;;20.59;70.46;97796.91;10324296;28;20069;-52
2023/06/01 08:17:38;;;;;;;13.52;8.15;;;;;;;20.76;71.89;97784.81;10330480;28;20032;-51
2023/06/01 08:22:37;;;;;;;11.73;7.72;;;;;;;21.01;70.26;97774.06;10331021;28;20233;-50
2023/06/01 08:27:36;;;;;;;12.77;7.40;;;;;;;21.27;68.83;97778.28;10333995;28;20069;-54
2023/06/01 08:32:35;;;;;;;16.90;7.45;;;;;;;21.83;67.82;97779.25;10332851;28;20140;-54
2023/06/01 08:37:35;;;;;;;10.48;6.22;;;;;;;22.06;61.86;97757.09;10334251;28;20069;-53
2023/06/01 08:42:42;;;;;;;8.07;5.15;;;;;;;22.63;56.56;97757.00;10332349;28;20116;-53
2023/06/01 08:47:42;;;;;;;8.52;5.32;;;;;;;23.18;59.18;97755.03;10331949;28;20077;-52
2023/06/01 08:52:43;;;;;;;9.45;5.65;;;;;;;23.51;54.35;97750.75;10331022;28;20120;-52
2023/06/01 08:57:42;;;;;;;9.95;5.90;;;;;;;23.69;55.93;97754.19;10330326;28;20112;-53
2023/06/01 09:02:42;;;;;;;10.52;6.00;;;;;;;24.05;55.56;97752.19;10331071;28;20108;-53
2023/06/01 09:07:41;;;;;;;9.50;5.20;;;;;;;24.22;54.21;97747.78;10330811;28;20508;-53
2023/06/01 09:12:51;;;;;;;7.65;5.63;;;;;;;24.57;52.61;97747.56;10330152;28;20065;-53
2023/06/01 09:17:52;;;;;;;8.40;5.90;;;;;;;24.70;53.82;97740.56;10328652;28;20063;-53
2023/06/01 09:22:52;;;;;;;9.52;5.63;;;;;;;24.85;52.97;97734.38;10330427;28;20073;-52
2023/06/01 09:27:52;;;;;;;7.43;5.03;;;;;;;25.05;53.84;97730.53;10329192;28;20480;-53
2023/06/01 09:33:09;;;;;;;9.05;6.18;;;;;;;25.45;54.87;97732.56;10330311;28;20065;-53
2023/06/01 09:38:08;;;;;;;9.15;5.40;;;;;;;26.04;52.94;97732.44;10331784;28;20108;-51
2023/06/01 09:43:21;;;;;;;9.18;5.55;;;;;;;26.25;51.23;97727.56;10333393;28;20072;-53
2023/06/01 09:48:20;;;;;;;7.40;5.60;;;;;;;26.45;51.01;97727.13;10330965;28;20076;-53
2023/06/01 09:53:19;;;;;;;8.77;5.20;;;;;;;26.29;50.53;97721.94;10332904;28;20496;-53
2023/06/01 09:58:21;;;;;;;8.25;5.22;;;;;;;25.94;52.06;97706.44;10331813;28;20527;-52
2023/06/01 10:03:21;;;;;;;7.78;5.22;;;;;;;25.79;52.05;97712.75;10326732;28;20128;-53
2023/06/01 10:08:20;;;;;;;8.30;6.18;;;;;;;25.55;51.43;97709.84;10326176;28;20053;-53
2023/06/01 10:13:22;;;;;;;8.30;5.95;;;;;;;25.55;44.34;97699.22;10334429;28;20434;-53
2023/06/01 10:18:21;;;;;;;8.68;6.45;;;;;;;25.54;47.15;97708.13;10331359;28;20060;-54
2023/06/01 10:23:20;;;;;;;12.00;6.70;;;;;;;25.36;44.88;97696.78;10332998;28;20096;-54
2023/06/01 10:28:21;;;;;;;11.63;6.80;;;;;;;25.21;44.87;97690.63;10333113;28;20091;-54
2023/06/01 10:34:00;;;;;;;8.02;6.38;;;;;;;25.63;45.18;97710.19;10333115;28;20052;-53
2023/06/01 10:39:21;;;;;;;10.38;6.70;;;;;;;25.69;46.58;97709.81;10329629;28;20093;-52
2023/06/01 10:44:41;;;;;;;10.07;6.50;;;;;;;26.29;46.73;97694.50;10329708;28;20073;-53
2023/06/01 10:49:49;;;;;;;9.20;6.05;;;;;;;26.50;43.74;97687.75;10328608;28;20129;-54
2023/06/01 10:54:48;;;;;;;9.00;6.72;;;;;;;26.46;47.43;97685.38;10329167;28;20061;-54
2023/06/01 11:00:09;;;;;;;9.45;6.57;;;;;;;25.68;49.06;97686.00;10328804;28;20029;-53
2023/06/01 11:05:32;;;;;;;8.38;6.35;;;;;;;25.34;52.57;97690.75;10329530;28;20069;-54
2023/06/01 11:10:50;;;;;;;10.82;7.50;;;;;;;25.43;54.53;97695.47;10328185;28;20480;-54
2023/06/01 11:16:04;;;;;;;10.02;6.65;;;;;;;25.16;55.60;97682.09;10328620;28;20073;-53
2023/06/01 11:21:03;;;;;;;9.63;6.43;;;;;;;25.01;56.29;97683.03;10327483;28;20124;-54
2023/06/01 11:26:06;;;;;;;9.23;6.53;;;;;;;24.87;56.32;97682.09;10328440;28;20067;-54
2023/06/01 11:31:09;;;;;;;9.60;6.72;;;;;;;24.68;57.09;97684.94;10328859;28;20068;-54
2023/06/01 11:36:10;;;;;;;10.93;6.50;;;;;;;24.44;56.30;97683.72;10328981;28;20460;-54
2023/06/01 11:41:09;;;;;;;11.27;6.13;;;;;;;23.52;56.28;97688.91;10327004;28;20116;-54
2023/06/01 11:46:11;;;;;;;10.75;7.10;;;;;;;22.85;55.58;97674.78;10328381;28;20075;-52
2023/06/01 11:51:17;;;;;;;10.43;6.60;;;;;;;22.08;60.19;97686.50;10328385;28;20079;-52
2023/06/01 11:56:16;;;;;;;9.45;7.05;;;;;;;21.70;60.30;97679.47;10327421;28;20080;-53
2023/06/01 12:01:16;;;;;;;14.80;7.10;;;;;;;21.45;61.30;97671.84;10327672;28;20073;-52
2023/06/01 12:06:23;;;;;;;13.70;7.18;;;;;;;21.44;62.09;97670.13;10328277;28;20072;-54
2023/06/01 12:11:27;;;;;;;10.98;7.10;;;;;;;21.32;61.74;97683.88;10327581;28;20461;-52
2023/06/01 12:16:52;;;;;;;10.55;7.13;;;;;;;20.86;62.65;97684.13;10326873;28;20057;-53
2023/06/01 12:21:56;;;;;;;10.55;7.18;;;;;;;21.02;63.63;97676.38;10324880;28;20112;-53
2023/06/01 12:26:58;;;;;;;10.30;7.53;;;;;;;21.26;63.09;97668.31;10323731;28;20071;-53
2023/06/01 12:31:57;;;;;;;15.07;7.80;;;;;;;21.55;62.93;97664.34;10324319;28;20069;-53
2023/06/01 12:36:56;;;;;;;9.38;6.63;;;;;;;21.80;60.99;97655.25;10325853;28;20085;-53
2023/06/01 12:41:55;;;;;;;10.07;6.90;;;;;;;22.26;61.90;97653.91;10329023;28;20125;-53
2023/06/01 12:46:58;;;;;;;10.07;6.85;;;;;;;23.06;60.09;97647.16;10320585;28;20044;-54
2023/06/01 12:51:58;;;;;;;9.85;6.78;;;;;;;23.81;54.99;97642.22;10327303;28;20516;-54
2023/06/01 12:56:57;;;;;;;10.18;6.55;;;;;;;24.38;55.24;97637.22;10329955;28;20072;-51
2023/06/01 13:01:56;;;;;;;10.38;6.53;;;;;;;25.41;52.63;97638.06;10330625;28;20491;-54
2023/06/01 13:06:55;;;;;;;8.18;5.85;;;;;;;25.99;47.18;97629.03;10337018;28;20489;-52
2023/06/01 13:11:54;;;;;;;10.50;7.00;;;;;;;26.26;47.21;97625.53;10335176;28;20059;-53
2023/06/01 13:16:53;;;;;;;7.95;6.57;;;;;;;26.42;43.87;97620.03;10335597;28;20025;-54
2023/06/01 13:21:52;;;;;;;11.43;6.78;;;;;;;26.56;43.89;97611.97;10336653;28;20427;-54
2023/06/01 13:26:51;;;;;;;13.15;6.15;;;;;;;26.94;44.53;97612.00;10336591;28;20108;-54
2023/06/01 13:31:50;;;;;;;7.90;6.20;;;;;;;26.78;43.86;97608.69;10333038;28;20112;-53
2023/06/01 13:36:49;;;;;;;7.72;5.93;;;;;;;26.39;44.03;97613.09;10331554;28;20084;-53
2023/06/01 13:41:48;;;;;;;11.35;6.50;;;;;;;26.32;45.03;97618.00;10329766;28;20073;-53
2023/06/01 13:46:47;;;;;;;8.68;6.32;;;;;;;26.29;46.02;97620.00;10327146;28;20053;-52
2023/06/01 13:51:46;;;;;;;9.65;6.78;;;;;;;26.14;46.28;97606.75;10328704;28;20116;-54
2023/06/01 13:56:45;;;;;;;8.73;6.25;;;;;;;26.29;44.75;97618.19;10328949;28;20088;-52
2023/06/01 14:01:44;;;;;;;11.40;7.00;;;;;;;26.30;46.78;97608.41;10328590;28;20120;-52
2023/06/01 14:06:43;;;;;;;8.30;6.30;;;;;;;25.53;46.10;97624.03;10327705;28;20035;-53
2023/06/01 14:11:42;;;;;;;10.68;6.40;;;;;;;25.10;47.59;97613.44;10328536;28;20022;-54
2023/06/01 14:16:41;;;;;;;11.25;6.18;;;;;;;24.90;48.19;97607.56;10328104;28;20120;-53
2023/06/01 14:21:40;;;;;;;9.05;6.60;;;;;;;24.67;48.63;97608.09;10328000;28;20039;-53
2023/06/01 14:26:39;;;;;;;10.52;7.22;;;;;;;24.08;51.67;97607.16;10328018;28;20095;-53
2023/06/01 14:31:38;;;;;;;10.07;6.50;;;;;;;23.79;55.32;97602.56;10327707;28;20075;-54
2023/06/01 14:36:37;;;;;;;10.43;7.80;;;;;;;23.46;56.97;97605.28;10326788;28;20125;-55
2023/06/01 14:41:36;;;;;;;10.95;7.57;;;;;;;23.25;57.49;97606.47;10326628;28;20606;-53
2023/06/01 14:46:35;;;;;;;9.32;6.70;;;;;;;22.83;57.02;97602.56;10326777;28;20053;-53
2023/06/01 14:51:34;;;;;;;8.93;6.82;;;;;;;22.80;57.52;97607.06;10326513;28;20041;-56
2023/06/01 14:56:33;;;;;;;12.52;8.02;;;;;;;22.80;60.01;97607.06;10326309;28;20061;-53
2023/06/01 15:01:32;;;;;;;11.80;8.52;;;;;;;22.83;61.08;97599.91;10326398;28;20033;-53
2023/06/01 15:06:31;;;;;;;11.52;8.55;;;;;;;22.90;64.73;97602.13;10326227;28;20037;-53
2023/06/01 15:11:30;;;;;;;14.00;9.93;;;;;;;22.90;67.81;97602.13;10319755;28;20559;-53
2023/06/01 15:16:29;;;;;;;15.48;12.90;;;;;;;22.83;70.31;97595.47;10317203;28;20588;-53
2023/06/01 15:21:28;;;;;;;13.27;8.88;;;;;;;22.87;70.34;97590.88;10321163;28;20132;-53
2023/06/01 15:26:27;;;;;;;11.82;7.95;;;;;;;22.91;68.61;97587.13;10324397;28;20076;-53
2023/06/01 15:31:26;;;;;;;13.20;8.20;;;;;;;22.90;66.92;97588.91;10322933;28;20064;-53
2023/06/01 15:36:25;;;;;;;14.63;10.45;;;;;;;22.82;66.64;97588.47;10325415;28;20113;-54
2023/06/01 15:41:25;;;;;;;12.05;8.52;;;;;;;22.72;67.37;97588.09;10325416;28;20353;-53
2023/06/01 15:46:24;;;;;;;10.30;7.93;;;;;;;22.70;67.56;97586.47;10323635;28;20120;-52
2023/06/01 15:51:24;;;;;;;9.70;7.78;;;;;;;22.63;66.82;97582.44;10324002;28;20076;-52
2023/06/01 15:56:23;;;;;;;20.17;13.60;;;;;;;22.55;67.02;97583.69;10324977;28;20082;-52
2023/06/01 16:01:22;;;;;;;13.30;8.90;;;;;;;22.64;68.11;97579.69;10324760;28;20033;-54
2023/06/01 16:06:20;;;;;;;10.50;7.53;;;;;;;22.63;67.70;97574.50;10311529;28;20049;-54
2023/06/01 16:11:20;;;;;;;9.38;7.25;;;;;;;22.56;68.79;97571.31;10323030;28;20037;-53
2023/06/01 16:16:20;;;;;;;12.45;8.63;;;;;;;22.54;69.60;97589.03;10320822;28;20504;-53
2023/06/01 16:21:19;;;;;;;13.90;7.72;;;;;;;22.31;68.65;97567.28;10321882;28;20891;-53
2023/06/01 16:26:18;;;;;;;13.52;8.43;;;;;;;22.28;68.64;97567.44;10323247;28;20458;-53
2023/06/01 16:31:17;;;;;;;16.05;10.02;;;;;;;22.05;70.66;97571.25;10322829;28;20053;-54
2023/06/01 16:36:16;;;;;;;18.98;13.52;;;;;;;21.78;71.50;97525.94;10328107;28;20057;-53
2023/06/01 16:41:15;;;;;;;16.33;10.52;;;;;;;22.10;70.14;97573.66;10335424;28;20045;-53
2023/06/01 16:46:14;;;;;;;18.17;11.75;;;;;;;22.07;69.56;97568.53;10334355;28;20033;-53
2023/06/01 16:51:13;;;;;;;10.07;7.13;;;;;;;22.08;68.49;97549.94;10334652;28;20512;-53
2023/06/01 16:56:12;;;;;;;10.57;6.68;;;;;;;22.18;67.16;97550.38;10335613;28;20041;-52
2023/06/01 17:01:11;;;;;;;10.30;7.10;;;;;;;22.19;66.87;97544.13;10334492;28;20113;-54
2023/06/01 17:06:10;;;;;;;10.38;6.60;;;;;;;22.11;67.86;97557.75;10334171;28;20116;-54
2023/06/01 17:11:09;;;;;;;10.80;7.20;;;;;;;22.01;68.99;97553.00;10334417;28;20041;-54
2023/06/01 17:16:08;;;;;;;9.23;6.82;;;;;;;21.76;69.35;97548.91;10325125;28;20108;-53
2023/06/01 17:21:07;;;;;;;10.90;6.90;;;;;;;21.54;69.80;97543.81;10330419;28;20072;-53
2023/06/01 17:26:06;;;;;;;12.27;7.28;;;;;;;21.29;70.05;97550.28;10328702;28;20112;-53
2023/06/01 17:31:05;;;;;;;10.27;6.85;;;;;;;21.12;70.70;97547.53;10331410;28;20219;-53
2023/06/01 17:36:04;;;;;;;11.23;6.97;;;;;;;20.88;72.05;97555.66;10329651;28;20464;-55
2023/06/01 17:41:04;;;;;;;10.82;6.72;;;;;;;20.61;73.06;97547.25;10332011;28;20516;-53
2023/06/01 17:46:05;;;;;;;12.38;7.82;;;;;;;20.36;74.17;97546.56;10329981;28;20081;-53
2023/06/01 17:51:03;;;;;;;10.05;7.63;;;;;;;20.00;74.91;97540.19;10330227;28;20520;-53
2023/06/01 17:56:03;;;;;;;10.60;7.50;;;;;;;19.72;75.51;97540.50;10330216;28;20032;-53
2023/06/01 18:01:02;;;;;;;12.30;6.85;;;;;;;19.43;76.05;97544.25;10331364;28;20057;-52
2023/06/01 18:06:01;;;;;;;12.93;7.10;;;;;;;19.16;77.00;97549.72;10330064;28;20455;-52
2023/06/01 18:11:06;;;;;;;12.55;7.55;;;;;;;18.94;77.92;97562.81;10329907;28;20164;-53
2023/06/01 18:16:05;;;;;;;13.38;7.65;;;;;;;18.75;78.45;97567.03;10331994;28;20076;-54
2023/06/01 18:21:04;;;;;;;12.23;7.18;;;;;;;18.55;78.79;97567.72;10332625;28;20184;-53
2023/06/01 18:26:03;;;;;;;9.55;7.63;;;;;;;18.28;79.06;97566.94;10330781;28;20065;-53
2023/06/01 18:31:02;;;;;;;9.88;7.75;;;;;;;18.08;80.08;97572.88;10331363;28;20512;-53
2023/06/01 18:36:02;;;;;;;11.90;8.23;;;;;;;17.82;80.72;97579.00;10330600;28;20451;-53
2023/06/01 18:41:01;;;;;;;11.23;7.80;;;;;;;17.58;81.02;97557.88;10329254;28;20507;-53
2023/06/01 18:46:00;;;;;;;13.57;9.05;;;;;;;17.60;82.17;97573.56;10325995;28;20503;-53
2023/06/01 18:50:59;;;;;;;11.48;8.35;;;;;;;17.43;82.69;97571.50;10326750;28;20492;-53
2023/06/01 18:55:58;;;;;;;14.98;8.82;;;;;;;17.34;82.86;97570.84;10324161;28;20146;-53
2023/06/01 19:00:57;;;;;;;12.65;9.05;;;;;;;17.19;84.01;97579.22;10323570;28;20029;-53
2023/06/01 19:05:56;;;;;;;11.63;8.23;;;;;;;17.08;84.03;97581.28;10323334;28;20592;-54
2023/06/01 19:10:59;;;;;;;14.90;9.18;;;;;;;17.01;84.07;97577.13;10319080;28;20527;-53
2023/06/01 19:15:59;;;;;;;12.10;9.32;;;;;;;16.90;84.09;97573.06;10322585;28;20120;-53
2023/06/01 19:21:15;;;;;;;14.15;10.15;;;;;;;16.84;84.30;97578.50;10319759;28;20081;-54
2023/06/01 19:26:15;;;;;;;16.48;11.07;;;;;;;16.76;84.79;97574.34;10324133;28;20136;-54
2023/06/01 19:31:20;;;;;;;13.18;10.40;;;;;;;16.61;85.52;97568.63;10325582;28;20077;-53
2023/06/01 19:36:38;;;;;;;19.35;13.52;;;;;;;16.51;86.52;97562.78;10323857;28;20120;-53
2023/06/01 19:41:37;;;;;;;17.65;14.77;;;;;;;16.41;87.08;97566.56;10326390;28;20080;-53
2023/06/01 19:46:36;;;;;;;19.90;14.43;;;;;;;16.33;87.91;97567.69;10322507;28;20397;-54
2023/06/01 19:51:36;;;;;;;21.15;15.20;;;;;;;16.20;88.99;97569.75;10320196;28;20116;-53
2023/06/01 19:56:37;;;;;;;19.45;15.57;;;;;;;15.94;89.40;97532.03;10322206;28;20072;-53
2023/06/01 20:01:38;;;;;;;21.38;14.75;;;;;;;15.90;89.58;97535.63;10321867;28;20133;-53
2023/06/01 20:06:48;;;;;;;16.67;13.40;;;;;;;15.94;89.77;97557.34;10320380;28;20128;-51
2023/06/01 20:11:52;;;;;;;19.95;13.70;;;;;;;15.92;89.89;97561.75;10326000;28;20450;-53
2023/06/01 20:16:52;;;;;;;23.90;15.65;;;;;;;15.89;89.98;97575.78;10330217;28;20124;-53
2023/06/01 20:21:53;;;;;;;25.83;15.73;;;;;;;15.85;90.38;97566.28;10331784;28;20512;-51
2023/06/01 20:26:57;;;;;;;22.02;16.02;;;;;;;15.78;90.35;97576.00;10331081;28;20060;-52
2023/06/01 20:31:57;;;;;;;18.20;14.35;;;;;;;15.68;90.84;97572.75;10331647;28;20144;-53
2023/06/01 20:36:57;;;;;;;16.20;13.77;;;;;;;15.60;90.70;97569.50;10331586;28;20443;-54
2023/06/01 20:41:58;;;;;;;19.73;15.15;;;;;;;15.55;91.14;97567.84;10330068;28;20491;-53
2023/06/01 20:46:57;;;;;;;22.45;15.98;;;;;;;15.51;91.28;97580.16;10331103;28;20073;-52
2023/06/01 20:51:56;;;;;;;21.70;16.02;;;;;;;15.43;91.51;97575.09;10331734;28;20045;-54
2023/06/01 20:56:55;;;;;;;;;;;;;;;15.34;92.52;97566.59;10330986;28;20065;-54
2023/06/01 21:01:56;;;;;;;25.23;15.05;;;;;;;15.30;93.21;97559.75;10328995;28;20000;-49
2023/06/01 21:06:55;;;;;;;17.60;13.02;;;;;;;15.07;94.00;97535.00;10329502;28;20135;-50
2023/06/01 21:11:57;;;;;;;16.95;12.25;;;;;;;15.27;93.94;97565.88;10330467;28;20585;-51
2023/06/01 21:16:57;;;;;;;16.85;12.80;;;;;;;15.25;94.00;97563.31;10329468;28;20508;-51
2023/06/01 21:21:56;;;;;;;19.38;12.18;;;;;;;15.32;93.44;97563.16;10329685;28;20081;-51
2023/06/01 21:26:55;;;;;;;15.77;12.48;;;;;;;15.35;93.31;97552.66;10329542;28;20025;-48
2023/06/01 21:31:54;;;;;;;19.90;13.27;;;;;;;15.28;93.81;97557.16;10328740;28;20080;-52
2023/06/01 21:36:54;;;;;;;27.33;16.77;;;;;;;15.24;94.77;97555.50;10329201;28;20033;-51
2023/06/01 21:41:53;;;;;;;26.25;16.10;;;;;;;15.15;95.88;97545.25;10329592;28;20095;-51
2023/06/01 21:46:52;;;;;;;20.08;15.15;;;;;;;15.19;95.88;97547.75;10326704;28;20495;-51
2023/06/01 21:51:51;;;;;;;;;;;;;;;15.27;95.68;97555.44;10329202;28;20109;-50
2023/06/01 21:56:50;;;;;;;23.07;16.13;;;;;;;15.10;95.91;97511.38;10324576;28;20692;-50
2023/06/01 22:01:49;;;;;;;21.38;14.05;;;;;;;15.34;95.57;97540.47;10327258;28;20069;-51
2023/06/01 22:06:48;;;;;;;17.70;13.68;;;;;;;15.35;95.25;97550.03;10328644;28;20068;-52
2023/06/01 22:11:47;;;;;;;21.52;14.60;;;;;;;15.43;95.17;97548.09;10325808;28;20045;-51
2023/06/01 22:16:46;;;;;;;18.08;14.27;;;;;;;15.43;95.19;97545.47;10327174;28;20071;-52
2023/06/01 22:21:45;;;;;;;26.50;13.70;;;;;;;15.44;94.80;97541.97;10326353;28;20021;-51
2023/06/01 22:26:44;;;;;;;;;;;;;;;15.48;94.74;97532.28;10323347;28;20131;-50
2023/06/01 22:31:43;;;;;;;20.67;13.80;;;;;;;15.45;94.58;97528.00;10325892;28;20011;-51
2023/06/01 22:36:42;;;;;;;31.80;15.32;;;;;;;15.48;94.58;97527.91;10327514;28;20025;-49
2023/06/01 22:41:41;;;;;;;20.45;14.27;;;;;;;15.44;94.45;97521.06;10327554;28;20543;-51
2023/06/01 22:46:40;;;;;;;21.90;13.77;;;;;;;15.41;95.16;97529.84;10326907;28;20113;-54
2023/06/01 22:51:43;;;;;;;21.40;12.63;;;;;;;15.38;94.74;97522.06;10327178;28;20041;-51
2023/06/01 22:56:42;;;;;;;17.13;12.52;;;;;;;15.39;94.78;97528.16;10326323;28;20104;-52
2023/06/01 23:01:41;;;;;;;15.18;11.90;;;;;;;15.37;94.41;97514.28;10326609;28;20029;-51
2023/06/01 23:06:40;;;;;;;;;;;;;;;15.26;94.99;97517.13;10326213;28;20586;-51